Huvudsida
METAR-TAF:

METAR-TAF

Flygplatser :

Karachi, Pakistan

latitud: 24-54N, longitud: 067-08E, höjd: 21 m

Aktuellt väderrapport

Denna rapport gjordes för 27 minuter sedan, klockan 14:55 UTC
Vind 8 kt från väst/sydväst
Temperatur 28°C
Fuktighet 74%
Tryck 1008 hPa
Sikt: 7000 m
Få moln på en höjd av 2000 ft

METAR: OPKC 261455Z 24008KT 7000 FEW020 28/23 Q1008 NOSIG

Tid: 20:22 (15:22 UTC)

Väderprognos

Denna rapport gjordes för 5 timmar och 22 minuter sedan, klockan 10:00 UTC
Prognos gäller från 26 kl. 12 UTC till 27 kl. 18 UTC
Vind 5 kt från väst/sydväst i byarna ända upp till 15 kt
Sikt: 6000 m
Spridda moln på en höjd av 2000 ft
Temporärt
från 27 kl. 00 UTC till 27 kl. 04 UTC
Vind 7 kt från väst/sydväst
Sikt: 4000 m
Brutna moln på en höjd av 2000 ft
rök
Från 27 kl. 0600 UTC
Vind 8 kt från sydväst i byarna ända upp till 18 kt
Sikt: 7000 m
Få moln på en höjd av 2500 ft

TAF: OPKC 261000Z 2612/2718 25005G15KT 6000 SCT020 TEMPO 2700/2704 25007KT 4000 FU BKN020 FM270600 23008G18KT 7000 FEW025

Aktuella väderrapporter och prognoser från 4000 flygplatser (METAR- och TAF-rapporter).

De tillgängliga stationerna syns som gula och röda prickar på kartan.

För musen över prickarna för att se namnen på stationerna.

Klicka sedan för att få väderrapporter och prognoser.

För att ändra kartan: Klicka på de gröna knapparna med ett svart kors på för att zooma in; den gröna knappen med ett streck på för att zooma ut; eller på de gröna pilarna för angränsande kartor.


METAR-TAF: